createdAt,value
2023-01-23T00:01:37.244Z,1.20
2023-01-23T00:04:06.064Z,1.30
2023-01-23T00:06:34.455Z,1.20
2023-01-23T00:09:02.763Z,1.30
2023-01-23T00:11:31.962Z,1.30
2023-01-23T00:14:02.649Z,1.20
2023-01-23T00:16:33.366Z,1.20
2023-01-23T00:19:01.959Z,1.20
2023-01-23T00:21:31.246Z,1.30
2023-01-23T00:24:02.101Z,1.20
2023-01-23T00:26:33.390Z,1.20
2023-01-23T00:29:03.755Z,1.20
2023-01-23T00:31:36.023Z,1.20
2023-01-23T00:34:07.227Z,1.20
2023-01-23T00:36:38.490Z,1.20
2023-01-23T00:39:16.174Z,1.20
2023-01-23T00:41:45.527Z,1.20
2023-01-23T00:44:15.562Z,1.20
2023-01-23T00:46:44.007Z,1.20
2023-01-23T00:49:12.223Z,1.20
2023-01-23T00:51:40.703Z,1.20
2023-01-23T00:54:08.867Z,1.20
2023-01-23T00:56:37.184Z,1.20
2023-01-23T00:59:05.602Z,1.20
2023-01-23T01:01:36.016Z,1.20
2023-01-23T01:04:04.561Z,1.20
2023-01-23T01:06:32.963Z,1.20
2023-01-23T01:09:01.546Z,1.20
2023-01-23T01:11:30.198Z,1.20
2023-01-23T01:14:01.375Z,1.20
2023-01-23T01:16:29.893Z,1.20
2023-01-23T01:19:01.155Z,1.20
2023-01-23T01:21:30.196Z,1.10
2023-01-23T01:23:58.438Z,1.20
2023-01-23T01:26:28.944Z,1.10
2023-01-23T01:28:57.681Z,1.10
2023-01-23T01:31:25.998Z,1.10
2023-01-23T01:33:56.156Z,1.10
2023-01-23T01:36:27.014Z,1.10
2023-01-23T01:38:55.539Z,1.00
2023-01-23T01:41:26.428Z,1.00
2023-01-23T01:43:57.083Z,1.00
2023-01-23T01:46:27.105Z,1.00
2023-01-23T01:49:06.002Z,1.00
2023-01-23T01:51:41.259Z,1.00
2023-01-23T01:54:17.135Z,1.00
2023-01-23T01:56:49.855Z,1.00
2023-01-23T01:59:20.020Z,1.00
2023-01-23T02:01:54.349Z,1.00
2023-01-23T02:04:22.809Z,1.00
2023-01-23T02:06:55.021Z,1.00
2023-01-23T02:09:26.949Z,1.00
2023-01-23T02:11:55.440Z,1.00
2023-01-23T02:14:25.718Z,1.10
2023-01-23T02:16:59.709Z,1.10
2023-01-23T02:19:39.519Z,1.10
2023-01-23T02:22:21.018Z,1.10
2023-01-23T02:24:57.311Z,1.10
2023-01-23T02:27:27.062Z,1.10
2023-01-23T02:29:56.266Z,1.10
2023-01-23T02:32:27.998Z,1.10
2023-01-23T02:34:58.960Z,1.10
2023-01-23T02:37:31.842Z,1.10
2023-01-23T02:40:02.598Z,1.10
2023-01-23T02:42:35.403Z,1.00
2023-01-23T02:45:10.012Z,1.10
2023-01-23T02:47:38.335Z,1.10
2023-01-23T02:50:07.258Z,1.10
2023-01-23T02:56:58.759Z,1.10
2023-01-23T02:59:46.722Z,1.00
2023-01-23T03:02:15.721Z,1.00
2023-01-23T03:04:44.001Z,1.00
2023-01-23T03:07:12.252Z,1.10
2023-01-23T03:09:41.851Z,1.10
2023-01-23T03:12:10.244Z,1.10
2023-01-23T03:14:40.750Z,1.10
2023-01-23T03:17:11.035Z,1.10
2023-01-23T03:19:39.960Z,1.10
2023-01-23T03:22:08.215Z,1.10
2023-01-23T03:24:36.611Z,1.00
2023-01-23T03:27:04.875Z,1.00
2023-01-23T03:29:58.359Z,1.00
2023-01-23T03:32:27.018Z,1.00
2023-01-23T03:34:57.335Z,1.00
2023-01-23T03:37:25.928Z,1.00
2023-01-23T03:40:12.961Z,1.00
2023-01-23T03:42:41.337Z,0.90
2023-01-23T03:45:13.484Z,0.90
2023-01-23T03:47:43.039Z,0.90
2023-01-23T03:50:12.305Z,0.90
2023-01-23T03:52:41.469Z,0.80
2023-01-23T03:55:11.492Z,0.80
2023-01-23T03:57:40.840Z,0.80
2023-01-23T04:00:26.214Z,0.80
2023-01-23T04:03:00.438Z,0.80
2023-01-23T04:05:29.832Z,0.80
2023-01-23T04:07:58.127Z,0.80
2023-01-23T04:10:27.322Z,0.80
2023-01-23T04:12:59.650Z,0.70
2023-01-23T04:15:29.505Z,0.70
2023-01-23T04:17:59.444Z,0.70
2023-01-23T04:20:29.520Z,0.70
2023-01-23T04:22:59.274Z,0.80
2023-01-23T04:25:29.447Z,0.80
2023-01-23T04:27:57.902Z,0.80
2023-01-23T04:30:26.355Z,0.90
2023-01-23T04:32:56.435Z,0.90
2023-01-23T04:35:24.701Z,0.90
2023-01-23T04:37:53.621Z,0.90
2023-01-23T04:40:22.816Z,0.90
2023-01-23T04:42:55.913Z,0.90
2023-01-23T04:45:35.236Z,0.90
2023-01-23T04:48:19.730Z,0.90
2023-01-23T04:50:50.031Z,0.90
2023-01-23T04:53:18.558Z,1.00
2023-01-23T04:55:50.230Z,1.00
2023-01-23T04:58:21.181Z,1.00
2023-01-23T05:00:50.419Z,1.00
2023-01-23T05:03:25.958Z,1.00
2023-01-23T05:05:54.298Z,1.00
2023-01-23T05:08:22.947Z,1.00
2023-01-23T05:11:03.633Z,1.00
2023-01-23T05:13:31.912Z,1.00
2023-01-23T05:16:00.243Z,1.00
2023-01-23T05:18:31.664Z,1.00
2023-01-23T05:21:00.005Z,1.00
2023-01-23T05:23:28.363Z,1.00
2023-01-23T05:25:56.857Z,1.00
2023-01-23T05:28:25.256Z,1.00
2023-01-23T05:30:57.008Z,0.90
2023-01-23T05:33:35.942Z,0.90
2023-01-23T05:36:07.352Z,0.90
2023-01-23T05:38:35.792Z,0.90
2023-01-23T05:41:05.179Z,0.90
2023-01-23T05:43:53.467Z,0.90
2023-01-23T05:46:30.270Z,0.90
2023-01-23T05:48:59.911Z,0.90
2023-01-23T05:51:32.283Z,0.90
2023-01-23T05:54:03.602Z,0.90
2023-01-23T05:56:32.025Z,0.90
2023-01-23T05:59:20.087Z,0.90
2023-01-23T06:01:59.631Z,0.90
2023-01-23T06:04:49.663Z,1.00
2023-01-23T06:07:25.745Z,0.90
2023-01-23T06:09:57.770Z,0.90
2023-01-23T06:12:26.159Z,0.90
2023-01-23T06:14:55.135Z,0.90
2023-01-23T06:17:23.701Z,0.90
2023-01-23T06:19:54.048Z,0.90
2023-01-23T06:22:22.320Z,0.90
2023-01-23T06:25:03.622Z,0.90
2023-01-23T06:27:31.973Z,0.90
2023-01-23T06:30:04.097Z,0.80
2023-01-23T06:32:35.481Z,0.80
2023-01-23T06:35:07.503Z,0.80
2023-01-23T06:37:39.633Z,0.70
2023-01-23T06:40:13.059Z,0.60
2023-01-23T06:42:44.717Z,0.60
2023-01-23T06:45:13.469Z,0.60
2023-01-23T06:47:41.796Z,0.60
2023-01-23T06:50:12.149Z,0.50
2023-01-23T06:52:40.994Z,0.50
2023-01-23T06:55:09.927Z,0.50
2023-01-23T06:57:38.626Z,0.50
2023-01-23T07:00:11.184Z,0.40
2023-01-23T07:02:40.872Z,0.40
2023-01-23T07:05:10.782Z,0.40
2023-01-23T07:07:39.269Z,0.40
2023-01-23T07:10:08.435Z,0.30
2023-01-23T07:12:36.765Z,0.30
2023-01-23T07:15:07.166Z,0.20
2023-01-23T07:17:39.685Z,0.20
2023-01-23T07:20:09.239Z,0.10
2023-01-23T07:22:44.978Z,0.10
2023-01-23T07:25:13.195Z,0.00
2023-01-23T07:27:41.452Z,0.00
2023-01-23T07:30:11.110Z,0.00
2023-01-23T07:32:39.486Z,-0.10
2023-01-23T07:35:09.370Z,-0.10
2023-01-23T07:37:37.728Z,-0.10
2023-01-23T07:40:08.519Z,-0.10
2023-01-23T07:42:36.787Z,-0.10
2023-01-23T07:45:05.562Z,0.00
2023-01-23T07:47:34.770Z,0.00
2023-01-23T07:50:02.988Z,0.10
2023-01-23T07:52:31.323Z,0.10
2023-01-23T07:54:59.650Z,0.20
2023-01-23T07:57:29.212Z,0.30
2023-01-23T07:59:57.630Z,0.30
2023-01-23T08:02:25.779Z,0.40
2023-01-23T08:04:54.121Z,0.50
2023-01-23T08:07:23.894Z,0.60
2023-01-23T08:09:52.194Z,0.70
2023-01-23T08:12:20.433Z,0.70
2023-01-23T08:14:50.015Z,0.80
2023-01-23T08:17:18.295Z,0.80
2023-01-23T08:19:46.522Z,0.90
2023-01-23T08:22:14.798Z,0.90
2023-01-23T08:24:43.064Z,1.00
2023-01-23T08:27:13.042Z,1.10
2023-01-23T08:29:41.344Z,1.10
2023-01-23T08:32:11.171Z,1.20
2023-01-23T08:34:39.463Z,1.20
2023-01-23T08:37:07.656Z,1.20
2023-01-23T08:39:36.030Z,1.10
2023-01-23T08:42:04.477Z,1.10
2023-01-23T08:44:34.234Z,1.10
2023-01-23T08:47:03.214Z,1.10
2023-01-23T08:49:32.709Z,1.20
2023-01-23T08:52:01.037Z,1.20
2023-01-23T08:54:29.207Z,1.30
2023-01-23T08:56:57.520Z,1.40
2023-01-23T08:59:25.883Z,1.50
2023-01-23T09:01:54.142Z,1.50
2023-01-23T09:04:22.326Z,1.60
2023-01-23T09:06:51.949Z,1.70
2023-01-23T09:09:20.241Z,1.80
2023-01-23T09:11:48.557Z,1.80
2023-01-23T09:14:16.809Z,1.90
2023-01-23T09:16:45.121Z,1.90
2023-01-23T09:19:13.346Z,2.00
2023-01-23T09:21:41.594Z,2.00
2023-01-23T09:24:11.137Z,2.10
2023-01-23T09:26:39.370Z,2.10
2023-01-23T09:29:07.545Z,2.20
2023-01-23T09:31:36.620Z,2.30
2023-01-23T09:34:05.023Z,2.40
2023-01-23T09:36:42.364Z,2.50
2023-01-23T09:39:13.141Z,2.60
2023-01-23T09:41:42.108Z,2.60
2023-01-23T09:44:16.507Z,2.70
2023-01-23T09:46:50.934Z,2.80
2023-01-23T09:49:26.261Z,2.80
2023-01-23T09:51:59.940Z,2.80
2023-01-23T09:54:37.100Z,2.90
2023-01-23T09:57:13.512Z,2.90
2023-01-23T09:59:58.716Z,2.90
2023-01-23T10:02:29.459Z,2.80
2023-01-23T10:04:59.352Z,2.80
2023-01-23T10:08:00.213Z,2.70
2023-01-23T10:10:54.460Z,2.70
2023-01-23T10:13:49.124Z,2.70
2023-01-23T10:16:44.956Z,2.80
2023-01-23T10:19:36.414Z,2.80
2023-01-23T10:22:22.422Z,2.80
2023-01-23T10:24:53.640Z,2.90
2023-01-23T10:27:24.988Z,3.30
2023-01-23T10:30:00.400Z,3.60
2023-01-23T10:32:30.705Z,4.00
2023-01-23T10:35:03.394Z,4.20
2023-01-23T10:37:42.109Z,4.20
2023-01-23T10:40:14.371Z,4.30
2023-01-23T10:42:44.000Z,4.40
2023-01-23T10:45:20.352Z,4.50
2023-01-23T10:47:55.074Z,4.50
2023-01-23T10:50:36.639Z,4.60
2023-01-23T10:53:08.973Z,4.70
2023-01-23T10:55:37.383Z,4.80
2023-01-23T10:58:22.842Z,5.00
2023-01-23T11:00:51.713Z,5.10
2023-01-23T11:03:28.585Z,4.80
2023-01-23T11:06:01.669Z,4.50
2023-01-23T11:08:32.576Z,4.20
2023-01-23T11:11:23.286Z,4.10
2023-01-23T11:14:08.965Z,4.30
2023-01-23T11:16:37.915Z,4.50
2023-01-23T11:19:17.315Z,4.50
2023-01-23T11:21:54.690Z,4.40
2023-01-23T11:24:39.850Z,4.20
2023-01-23T11:27:20.145Z,4.10
2023-01-23T11:30:11.980Z,4.10
2023-01-23T11:32:47.934Z,4.10
2023-01-23T11:35:21.591Z,4.00
2023-01-23T11:37:50.285Z,3.90
2023-01-23T11:40:20.583Z,3.70
2023-01-23T11:42:49.532Z,3.80
2023-01-23T11:45:31.765Z,4.20
2023-01-23T11:48:20.189Z,4.60
2023-01-23T11:50:55.942Z,5.10
2023-01-23T11:53:41.867Z,5.40
2023-01-23T11:56:23.965Z,5.60
2023-01-23T11:59:14.258Z,5.80
2023-01-23T12:02:03.081Z,5.80
2023-01-23T12:04:54.714Z,5.90
2023-01-23T12:07:25.314Z,6.10
2023-01-23T12:10:04.047Z,6.30
2023-01-23T12:12:54.959Z,6.40
2023-01-23T12:15:33.323Z,6.50
2023-01-23T12:18:13.787Z,6.50
2023-01-23T12:20:53.477Z,6.30
2023-01-23T12:23:31.629Z,6.20
2023-01-23T12:26:08.156Z,6.20
2023-01-23T12:28:55.102Z,6.10
2023-01-23T12:31:45.135Z,6.10
2023-01-23T12:34:34.444Z,6.10
2023-01-23T12:37:29.921Z,6.10
2023-01-23T12:40:11.695Z,6.20
2023-01-23T12:42:46.963Z,6.30
2023-01-23T12:45:22.485Z,6.40
2023-01-23T12:48:00.176Z,6.30
2023-01-23T12:50:39.940Z,6.40
2023-01-23T12:53:11.321Z,6.70
2023-01-23T12:55:44.330Z,6.80
2023-01-23T12:58:18.510Z,6.60
2023-01-23T13:01:00.245Z,6.50
2023-01-23T13:03:46.241Z,6.50
2023-01-23T13:06:29.901Z,6.60
2023-01-23T13:09:16.557Z,6.70
2023-01-23T13:11:57.557Z,6.70
2023-01-23T13:15:00.609Z,6.60
2023-01-23T13:17:36.631Z,6.60
2023-01-23T13:20:38.278Z,6.40
2023-01-23T13:23:30.289Z,6.00
2023-01-23T13:26:19.612Z,5.80
2023-01-23T13:28:48.570Z,5.60
2023-01-23T13:31:36.079Z,5.30
2023-01-23T13:34:25.187Z,5.20
2023-01-23T13:36:54.430Z,5.00
2023-01-23T13:39:33.595Z,5.10
2023-01-23T13:42:31.556Z,5.20
2023-01-23T13:45:24.570Z,5.30
2023-01-23T14:22:36.760Z,3.90
2023-01-23T14:25:14.889Z,4.00
2023-01-23T14:27:53.195Z,4.10
2023-01-23T14:30:28.386Z,4.00
2023-01-23T14:32:56.794Z,3.80
2023-01-23T14:35:27.004Z,3.70
2023-01-23T14:37:58.806Z,3.60
2023-01-23T14:40:33.409Z,3.50
2023-01-23T14:43:07.695Z,3.40
2023-01-23T14:45:38.712Z,3.40
2023-01-23T14:48:08.804Z,3.20
2023-01-23T14:50:37.283Z,3.20
2023-01-23T14:53:07.681Z,3.10
2023-01-23T14:55:40.215Z,3.10
2023-01-23T14:58:13.308Z,3.10
2023-01-23T15:00:44.254Z,3.10
2023-01-23T15:03:13.774Z,3.10
2023-01-23T15:05:56.377Z,3.10
2023-01-23T15:08:31.828Z,3.10
2023-01-23T15:11:01.823Z,3.00
2023-01-23T15:13:36.815Z,2.90
2023-01-23T15:16:11.993Z,2.90
2023-01-23T15:18:41.029Z,2.80
2023-01-23T15:21:10.038Z,2.80
2023-01-23T15:23:39.953Z,2.80
2023-01-23T15:26:25.308Z,2.70
2023-01-23T15:28:54.938Z,2.60
2023-01-23T15:31:30.869Z,2.60
2023-01-23T15:34:19.249Z,2.60
2023-01-23T15:36:49.281Z,2.60
2023-01-23T15:39:21.083Z,2.50
2023-01-23T15:41:51.640Z,2.50
2023-01-23T15:44:21.804Z,2.50
2023-01-23T15:46:51.850Z,2.50
2023-01-23T15:49:25.717Z,2.50
2023-01-23T15:51:57.178Z,2.50
2023-01-23T15:54:32.141Z,2.50
2023-01-23T15:57:07.543Z,2.50
2023-01-23T15:59:37.457Z,2.50
2023-01-23T16:02:15.252Z,2.60
2023-01-23T16:04:50.249Z,2.60
2023-01-23T16:07:23.814Z,2.60
2023-01-23T16:09:54.879Z,2.60
2023-01-23T16:12:28.069Z,2.60
2023-01-23T16:14:56.523Z,2.70
2023-01-23T16:17:26.155Z,2.80
2023-01-23T16:19:54.541Z,2.70
2023-01-23T16:22:29.033Z,2.70
2023-01-23T16:24:58.710Z,2.70
2023-01-23T16:27:27.752Z,2.80
2023-01-23T16:29:56.983Z,2.70
2023-01-23T16:32:26.617Z,2.80
2023-01-23T16:34:54.956Z,2.80
2023-01-23T16:37:23.174Z,2.80
2023-01-23T16:39:51.403Z,2.80
2023-01-23T16:42:23.178Z,2.70
2023-01-23T16:44:51.994Z,2.70
2023-01-23T16:47:20.294Z,2.70
2023-01-23T16:49:52.910Z,2.70
2023-01-23T16:52:24.663Z,2.70
2023-01-23T16:54:54.737Z,2.70
2023-01-23T16:57:23.199Z,2.70
2023-01-23T16:59:52.650Z,2.70
2023-01-23T17:02:24.059Z,2.60
2023-01-23T17:04:54.410Z,2.60
2023-01-23T17:07:22.620Z,2.60
2023-01-23T17:09:51.721Z,2.60
2023-01-23T17:12:22.918Z,2.60
2023-01-23T17:14:52.924Z,2.60
2023-01-23T17:17:28.833Z,2.60
2023-01-23T17:20:00.991Z,2.60
2023-01-23T17:22:33.944Z,2.60
2023-01-23T17:25:02.329Z,2.60
2023-01-23T17:27:34.339Z,2.60
2023-01-23T17:30:15.739Z,2.60
2023-01-23T17:32:44.567Z,2.60
2023-01-23T17:35:21.367Z,2.60
2023-01-23T17:37:50.521Z,2.60
2023-01-23T17:40:19.297Z,2.60
2023-01-23T17:42:47.578Z,2.60
2023-01-23T17:45:17.933Z,2.70
2023-01-23T17:47:49.625Z,2.60
2023-01-23T17:50:21.670Z,2.60
2023-01-23T17:52:50.938Z,2.60
2023-01-23T17:55:20.763Z,2.60
2023-01-23T17:57:49.256Z,2.60
2023-01-23T18:00:20.007Z,2.60
2023-01-23T18:02:53.117Z,2.60
2023-01-23T18:05:23.083Z,2.60
2023-01-23T18:07:54.152Z,2.70
2023-01-23T18:10:24.522Z,2.60
2023-01-23T18:13:03.479Z,2.70
2023-01-23T18:15:38.222Z,2.60
2023-01-23T18:18:20.767Z,2.60
2023-01-23T18:20:54.565Z,2.70
2023-01-23T18:23:23.979Z,2.60
2023-01-23T18:25:59.554Z,2.60
2023-01-23T18:28:32.791Z,2.60
2023-01-23T18:31:07.407Z,2.70
2023-01-23T18:33:46.983Z,2.70
2023-01-23T18:36:39.462Z,2.70
2023-01-23T18:39:25.194Z,2.70
2023-01-23T18:42:07.511Z,2.70
2023-01-23T18:44:35.949Z,2.70
2023-01-23T18:47:06.635Z,2.60
2023-01-23T18:49:35.248Z,2.70
2023-01-23T18:52:12.146Z,2.70
2023-01-23T18:54:50.046Z,2.60
2023-01-23T18:57:32.989Z,2.60
2023-01-23T19:00:12.565Z,2.50
2023-01-23T19:02:47.529Z,2.40
2023-01-23T19:05:27.227Z,2.40
2023-01-23T19:07:57.606Z,2.30
2023-01-23T19:10:30.693Z,2.30
2023-01-23T19:13:12.905Z,2.20
2023-01-23T19:15:47.966Z,2.20
2023-01-23T19:18:42.711Z,2.20
2023-01-23T19:21:16.824Z,2.10
2023-01-23T19:23:54.011Z,2.10
2023-01-23T19:26:23.621Z,2.00
2023-01-23T19:28:52.518Z,1.90
2023-01-23T19:31:23.481Z,1.90
2023-01-23T19:33:52.477Z,1.90
2023-01-23T19:36:21.689Z,1.80
2023-01-23T19:38:52.433Z,1.80
2023-01-23T19:41:22.141Z,1.80
2023-01-23T19:43:51.712Z,1.70
2023-01-23T19:46:20.845Z,1.70
2023-01-23T19:48:49.368Z,1.70
2023-01-23T19:51:20.002Z,1.60
2023-01-23T19:53:48.485Z,1.60
2023-01-23T19:56:18.914Z,1.60
2023-01-23T19:58:47.996Z,1.60
2023-01-23T20:01:23.407Z,1.60
2023-01-23T20:03:52.107Z,1.60
2023-01-23T20:06:20.656Z,1.60
2023-01-23T20:08:48.982Z,1.70
2023-01-23T20:11:19.672Z,1.70
2023-01-23T20:13:48.172Z,1.70
2023-01-23T20:16:19.977Z,1.70
2023-01-23T20:18:49.037Z,1.70
2023-01-23T20:21:18.645Z,1.80
2023-01-23T20:23:48.183Z,1.90
2023-01-23T20:26:19.831Z,1.90
2023-01-23T20:28:48.954Z,1.90
2023-01-23T20:31:17.824Z,2.00
2023-01-23T20:33:46.250Z,2.00
2023-01-23T20:36:15.823Z,2.00
2023-01-23T20:38:44.448Z,2.00
2023-01-23T20:41:14.805Z,2.00
2023-01-23T20:43:44.843Z,2.10
2023-01-23T20:46:14.334Z,2.10
2023-01-23T20:48:44.954Z,2.10
2023-01-23T20:51:17.009Z,2.10
2023-01-23T20:53:44.727Z,2.10
2023-01-23T20:56:15.005Z,2.10
2023-01-23T20:59:04.636Z,2.10
2023-01-23T21:01:55.511Z,2.10
2023-01-23T21:04:25.926Z,2.00
2023-01-23T21:06:54.296Z,2.00
2023-01-23T21:09:23.132Z,2.00
2023-01-23T21:11:52.207Z,2.00
2023-01-23T21:14:24.171Z,2.10
2023-01-23T21:16:52.478Z,2.10
2023-01-23T21:19:20.692Z,2.10
2023-01-23T21:21:49.277Z,2.10
2023-01-23T21:24:17.791Z,2.10
2023-01-23T21:26:46.330Z,2.10
2023-01-23T21:29:14.557Z,2.00
2023-01-23T21:31:44.418Z,2.10
2023-01-23T21:34:14.859Z,2.00
2023-01-23T21:36:43.810Z,2.00
2023-01-23T21:39:14.143Z,2.00
2023-01-23T21:41:42.638Z,2.00
2023-01-23T21:44:11.112Z,2.00
2023-01-23T21:46:39.515Z,2.00
2023-01-23T21:49:09.445Z,1.90
2023-01-23T21:51:37.950Z,1.90
2023-01-23T21:54:06.472Z,1.90
2023-01-23T21:56:34.946Z,1.90
2023-01-23T21:59:03.146Z,1.90
2023-01-23T22:01:35.491Z,1.90
2023-01-23T22:04:06.220Z,1.80
2023-01-23T22:06:37.486Z,1.80
2023-01-23T22:09:06.995Z,1.80
2023-01-23T22:11:35.846Z,1.80
2023-01-23T22:14:04.971Z,1.80
2023-01-23T22:16:47.507Z,1.70
2023-01-23T22:19:18.282Z,1.70
2023-01-23T22:21:48.212Z,1.70
2023-01-23T22:24:16.596Z,1.60
2023-01-23T22:26:44.851Z,1.70
2023-01-23T22:29:13.999Z,1.70
2023-01-23T22:31:43.744Z,1.60
2023-01-23T22:34:12.185Z,1.60
2023-01-23T22:36:40.368Z,1.60
2023-01-23T22:39:10.203Z,1.70
2023-01-23T22:41:38.368Z,1.70
2023-01-23T22:44:06.685Z,1.80
2023-01-23T22:46:34.884Z,1.70
2023-01-23T22:49:03.219Z,1.80
2023-01-23T22:51:31.963Z,1.80
2023-01-23T22:54:00.445Z,1.80
2023-01-23T22:56:30.403Z,1.70
2023-01-23T22:59:01.017Z,1.70
2023-01-23T23:01:30.176Z,1.70
2023-01-23T23:03:58.809Z,1.70
2023-01-23T23:06:29.617Z,1.70
2023-01-23T23:08:57.916Z,1.70
2023-01-23T23:11:28.029Z,1.70
2023-01-23T23:13:59.099Z,1.60
2023-01-23T23:16:30.782Z,1.60
2023-01-23T23:19:00.732Z,1.70
2023-01-23T23:21:33.916Z,1.70
2023-01-23T23:24:03.107Z,1.60
2023-01-23T23:26:32.377Z,1.60
2023-01-23T23:29:02.794Z,1.70
2023-01-23T23:31:31.445Z,1.70
2023-01-23T23:33:59.900Z,1.70
2023-01-23T23:36:28.175Z,1.80
2023-01-23T23:38:56.518Z,1.80
2023-01-23T23:41:25.031Z,1.80
2023-01-23T23:43:53.675Z,1.80
2023-01-23T23:46:23.125Z,1.80
2023-01-23T23:48:51.375Z,1.80
2023-01-23T23:51:20.414Z,1.80
2023-01-23T23:53:48.984Z,1.70
2023-01-23T23:56:21.946Z,1.80
2023-01-23T23:58:50.302Z,1.80
